Macondo — 3EYB9 — position and weather

sailwx.info

Track history (hours):
 
Tides and Currents Weather Stations Pressure Air Temp Water Temp Dewpoint Dewpoint Depression Visibility Wind Speed Wind Dir Waves Ship Positions

Macondo

Last reported at 2014-Oct-01 05:33 UTC. Time now 2014-Oct-01 06:00 UTC.
Position N 27°56' W 082°27'.

Length 120 m; draft 5 m.

Type: Ship. MMSI: 371293000.

Date/timePositionNaut miles runAvg speedWind from/ knotsBaromVisibWave heightAir tempDewpointWater temp
2014-Oct-01 05:33N 27°56' W 082°27'0 0.0
2014-Oct-01 04:33N 27°56' W 082°27'0 0.0
2014-Oct-01 03:33N 27°56' W 082°27'0 0.0
2014-Oct-01 02:33N 27°56' W 082°27'0 0.0
2014-Oct-01 01:33N 27°56' W 082°27'0 0.0
2014-Oct-01 00:33N 27°56' W 082°27'0 0.0
2014-Sep-30 23:33N 27°56' W 082°27'0 0.0
2014-Sep-30 22:33N 27°56' W 082°27'0 0.0
2014-Sep-30 21:33N 27°56' W 082°27'0 0.0
2014-Sep-30 20:33N 27°56' W 082°27'0 0.0
2014-Sep-30 19:33N 27°56' W 082°27'0 0.0
2014-Sep-30 18:33N 27°56' W 082°27'0 0.0
2014-Sep-30 17:33N 27°56' W 082°27'0 0.0
2014-Sep-30 16:33N 27°56' W 082°27'0 0.0
2014-Sep-30 15:33N 27°56' W 082°27'0 0.0
2014-Sep-30 14:33N 27°56' W 082°27'0 0.0
2014-Sep-30 13:33N 27°56' W 082°27'0 0.0
2014-Sep-30 12:33N 27°56' W 082°27'0 0.0
2014-Sep-30 11:33N 27°56' W 082°27'0 0.0
2014-Sep-30 10:33N 27°56' W 082°27'0 0.0
2014-Sep-30 09:33N 27°56' W 082°27'0 0.0
2014-Sep-30 08:33N 27°56' W 082°27'0 0.0
2014-Sep-30 07:33N 27°56' W 082°27'0 0.0
2014-Sep-30 06:33N 27°56' W 082°27'0 0.0
2014-Sep-30 05:33N 27°56' W 082°27'0 0.0
2014-Sep-30 04:33N 27°56' W 082°27'0 0.0
2014-Sep-30 03:33N 27°56' W 082°27'0 0.0
2014-Sep-30 02:33N 27°56' W 082°27'0 0.0
2014-Sep-30 01:33N 27°56' W 082°27'0 0.0
2014-Sep-30 00:33N 27°56' W 082°27'0 0.0
2014-Sep-29 23:33N 27°56' W 082°27'0 0.0
2014-Sep-29 22:33N 27°56' W 082°27'0 0.0
2014-Sep-29 21:33N 27°56' W 082°27'0 0.0
2014-Sep-29 20:33N 27°56' W 082°27'0 0.0
2014-Sep-29 19:33N 27°56' W 082°27'0 0.0
2014-Sep-29 18:33N 27°56' W 082°27'0 0.0
2014-Sep-29 17:33N 27°56' W 082°27'0 0.0
2014-Sep-29 16:33N 27°56' W 082°27'0 0.0
2014-Sep-29 15:33N 27°56' W 082°27'0 0.0
2014-Sep-29 14:33N 27°56' W 082°27'0 0.0
2014-Sep-29 13:33N 27°56' W 082°27'0 0.0
2014-Sep-29 12:33N 27°56' W 082°27'0 0.0
2014-Sep-29 11:33N 27°56' W 082°27'0 0.0
2014-Sep-29 10:33N 27°56' W 082°27'0 0.0
2014-Sep-29 09:33N 27°56' W 082°27'0 0.0
2014-Sep-29 08:33N 27°56' W 082°27'0 0.0
2014-Sep-29 07:33N 27°56' W 082°27'0 0.0
2014-Sep-29 06:33N 27°56' W 082°27'0 0.0
2014-Sep-29 05:33N 27°56' W 082°27'0 0.0
2014-Sep-29 04:33N 27°56' W 082°27'0 0.0
2014-Sep-29 03:33N 27°56' W 082°27'0 0.0
2014-Sep-29 02:33N 27°56' W 082°27'0 0.0
2014-Sep-29 01:33N 27°56' W 082°27'0 0.0
2014-Sep-29 00:33N 27°56' W 082°27'0 0.0
2014-Sep-28 23:33N 27°56' W 082°27'0 0.0
2014-Sep-28 22:33N 27°56' W 082°27'0 0.0
2014-Sep-28 21:33N 27°56' W 082°27'0 0.0
2014-Sep-28 20:33N 27°56' W 082°27'0 0.0
2014-Sep-28 19:33N 27°56' W 082°27'0 0.0
2014-Sep-28 18:33N 27°56' W 082°27'0 0.0
2014-Sep-28 17:33N 27°56' W 082°27'0 0.0
2014-Sep-28 16:33N 27°56' W 082°27'4 4.2
2014-Sep-28 15:33N 27°52' W 082°27'9 8.9
2014-Sep-28 14:33N 27°44' W 082°32'10 8.9
2014-Sep-28 13:28N 27°37' W 082°39'8 8.5
2014-Sep-28 12:33N 27°37' W 082°48'10 9.6
2014-Sep-28 11:33N 27°34' W 082°59'11 9.8
2014-Sep-28 10:28N 27°24' W 083°02'  
Track history (hours):
 
Tides and Currents Weather Stations Pressure Air Temp Water Temp Dewpoint Dewpoint Depression Visibility Wind Speed Wind Dir Waves Ship Positions

Macondo

Last reported at 2014-Oct-01 05:33 UTC. Time now 2014-Oct-01 06:00 UTC.
Position N 27°56' W 082°27'.

Length 120 m; draft 5 m.

Type: Ship. MMSI: 371293000.

Date/timePositionNaut miles runAvg speedWind from/ knotsBaromVisibWave heightAir tempDewpointWater temp
2014-Oct-01 05:33N 27°56' W 082°27'0 0.0
2014-Oct-01 04:33N 27°56' W 082°27'0 0.0
2014-Oct-01 03:33N 27°56' W 082°27'0 0.0
2014-Oct-01 02:33N 27°56' W 082°27'0 0.0
2014-Oct-01 01:33N 27°56' W 082°27'0 0.0
2014-Oct-01 00:33N 27°56' W 082°27'0 0.0
2014-Sep-30 23:33N 27°56' W 082°27'0 0.0
2014-Sep-30 22:33N 27°56' W 082°27'0 0.0
2014-Sep-30 21:33N 27°56' W 082°27'0 0.0
2014-Sep-30 20:33N 27°56' W 082°27'0 0.0
2014-Sep-30 19:33N 27°56' W 082°27'0 0.0
2014-Sep-30 18:33N 27°56' W 082°27'0 0.0
2014-Sep-30 17:33N 27°56' W 082°27'0 0.0
2014-Sep-30 16:33N 27°56' W 082°27'0 0.0
2014-Sep-30 15:33N 27°56' W 082°27'0 0.0
2014-Sep-30 14:33N 27°56' W 082°27'0 0.0
2014-Sep-30 13:33N 27°56' W 082°27'0 0.0
2014-Sep-30 12:33N 27°56' W 082°27'0 0.0
2014-Sep-30 11:33N 27°56' W 082°27'0 0.0
2014-Sep-30 10:33N 27°56' W 082°27'0 0.0
2014-Sep-30 09:33N 27°56' W 082°27'0 0.0
2014-Sep-30 08:33N 27°56' W 082°27'0 0.0
2014-Sep-30 07:33N 27°56' W 082°27'0 0.0
2014-Sep-30 06:33N 27°56' W 082°27'0 0.0
2014-Sep-30 05:33N 27°56' W 082°27'0 0.0
2014-Sep-30 04:33N 27°56' W 082°27'0 0.0
2014-Sep-30 03:33N 27°56' W 082°27'0 0.0
2014-Sep-30 02:33N 27°56' W 082°27'0 0.0
2014-Sep-30 01:33N 27°56' W 082°27'0 0.0
2014-Sep-30 00:33N 27°56' W 082°27'0 0.0
2014-Sep-29 23:33N 27°56' W 082°27'0 0.0
2014-Sep-29 22:33N 27°56' W 082°27'0 0.0
2014-Sep-29 21:33N 27°56' W 082°27'0 0.0
2014-Sep-29 20:33N 27°56' W 082°27'0 0.0
2014-Sep-29 19:33N 27°56' W 082°27'0 0.0
2014-Sep-29 18:33N 27°56' W 082°27'0 0.0
2014-Sep-29 17:33N 27°56' W 082°27'0 0.0
2014-Sep-29 16:33N 27°56' W 082°27'0 0.0
2014-Sep-29 15:33N 27°56' W 082°27'0 0.0
2014-Sep-29 14:33N 27°56' W 082°27'0 0.0
2014-Sep-29 13:33N 27°56' W 082°27'0 0.0
2014-Sep-29 12:33N 27°56' W 082°27'0 0.0
2014-Sep-29 11:33N 27°56' W 082°27'0 0.0
2014-Sep-29 10:33N 27°56' W 082°27'0 0.0
2014-Sep-29 09:33N 27°56' W 082°27'0 0.0
2014-Sep-29 08:33N 27°56' W 082°27'0 0.0
2014-Sep-29 07:33N 27°56' W 082°27'0 0.0
2014-Sep-29 06:33N 27°56' W 082°27'0 0.0
2014-Sep-29 05:33N 27°56' W 082°27'0 0.0
2014-Sep-29 04:33N 27°56' W 082°27'0 0.0
2014-Sep-29 03:33N 27°56' W 082°27'0 0.0
2014-Sep-29 02:33N 27°56' W 082°27'0 0.0
2014-Sep-29 01:33N 27°56' W 082°27'0 0.0
2014-Sep-29 00:33N 27°56' W 082°27'0 0.0
2014-Sep-28 23:33N 27°56' W 082°27'0 0.0
2014-Sep-28 22:33N 27°56' W 082°27'0 0.0
2014-Sep-28 21:33N 27°56' W 082°27'0 0.0
2014-Sep-28 20:33N 27°56' W 082°27'0 0.0
2014-Sep-28 19:33N 27°56' W 082°27'0 0.0
2014-Sep-28 18:33N 27°56' W 082°27'0 0.0
2014-Sep-28 17:33N 27°56' W 082°27'0 0.0
2014-Sep-28 16:33N 27°56' W 082°27'4 4.2
2014-Sep-28 15:33N 27°52' W 082°27'9 8.9
2014-Sep-28 14:33N 27°44' W 082°32'10 8.9
2014-Sep-28 13:28N 27°37' W 082°39'8 8.5
2014-Sep-28 12:33N 27°37' W 082°48'10 9.6
2014-Sep-28 11:33N 27°34' W 082°59'11 9.8
2014-Sep-28 10:28N 27°24' W 083°02'  

Dump ship's entire track history